sensor_id;sensor_type;location;lat;lon;timestamp;pressure;altitude;pressure_sealevel;temperature;humidity
63343;BME280;49465;57.664;39.686;2022-07-23T00:01:57;100367.75;;;22.09;54.50
63343;BME280;49465;57.664;39.686;2022-07-23T00:04:24;100366.44;;;22.05;54.28
63343;BME280;49465;57.664;39.686;2022-07-23T00:06:50;100377.44;;;22.02;54.51
63343;BME280;49465;57.664;39.686;2022-07-23T00:09:19;100380.44;;;22.07;54.49
63343;BME280;49465;57.664;39.686;2022-07-23T00:11:49;100365.75;;;21.95;54.55
63343;BME280;49465;57.664;39.686;2022-07-23T00:14:21;100369.78;;;21.91;54.78
63343;BME280;49465;57.664;39.686;2022-07-23T00:16:51;100373.28;;;22.00;54.83
63343;BME280;49465;57.664;39.686;2022-07-23T00:19:17;100373.13;;;21.85;54.90
63343;BME280;49465;57.664;39.686;2022-07-23T00:21:46;100369.31;;;21.79;55.03
63343;BME280;49465;57.664;39.686;2022-07-23T00:24:15;100370.50;;;21.77;54.90
63343;BME280;49465;57.664;39.686;2022-07-23T00:26:42;100368.34;;;21.72;54.90
63343;BME280;49465;57.664;39.686;2022-07-23T00:29:08;100367.69;;;21.70;55.20
63343;BME280;49465;57.664;39.686;2022-07-23T00:31:39;100368.84;;;21.67;55.32
63343;BME280;49465;57.664;39.686;2022-07-23T00:34:05;100378.19;;;21.63;55.52
63343;BME280;49465;57.664;39.686;2022-07-23T00:36:32;100371.34;;;21.61;55.53
63343;BME280;49465;57.664;39.686;2022-07-23T00:39:02;100375.19;;;21.58;56.47
63343;BME280;49465;57.664;39.686;2022-07-23T00:41:28;100371.88;;;21.56;56.54
63343;BME280;49465;57.664;39.686;2022-07-23T00:43:55;100372.69;;;21.57;56.29
63343;BME280;49465;57.664;39.686;2022-07-23T00:46:24;100369.38;;;21.55;56.49
63343;BME280;49465;57.664;39.686;2022-07-23T00:48:57;100375.03;;;21.51;56.71
63343;BME280;49465;57.664;39.686;2022-07-23T00:51:24;100365.53;;;21.49;56.03
63343;BME280;49465;57.664;39.686;2022-07-23T00:53:56;100379.19;;;21.62;56.30
63343;BME280;49465;57.664;39.686;2022-07-23T00:56:22;100375.69;;;21.45;56.55
63343;BME280;49465;57.664;39.686;2022-07-23T00:58:53;100368.84;;;21.43;56.62
63343;BME280;49465;57.664;39.686;2022-07-23T01:01:19;100382.34;;;21.41;56.81
63343;BME280;49465;57.664;39.686;2022-07-23T01:03:52;100383.31;;;21.40;57.10
63343;BME280;49465;57.664;39.686;2022-07-23T01:06:19;100384.50;;;21.38;57.43
63343;BME280;49465;57.664;39.686;2022-07-23T01:08:50;100384.03;;;21.50;57.29
63343;BME280;49465;57.664;39.686;2022-07-23T01:11:18;100388.00;;;21.38;57.25
63343;BME280;49465;57.664;39.686;2022-07-23T01:13:48;100389.19;;;21.44;57.40
63343;BME280;49465;57.664;39.686;2022-07-23T01:16:15;100394.00;;;21.32;57.20
63343;BME280;49465;57.664;39.686;2022-07-23T01:18:44;100387.84;;;21.31;57.27
63343;BME280;49465;57.664;39.686;2022-07-23T01:21:18;100386.88;;;21.49;56.08
63343;BME280;49465;57.664;39.686;2022-07-23T01:23:48;100387.16;;;21.29;57.26
63343;BME280;49465;57.664;39.686;2022-07-23T01:26:22;100385.50;;;21.28;57.42
63343;BME280;49465;57.664;39.686;2022-07-23T01:28:51;100380.16;;;21.28;57.39
63343;BME280;49465;57.664;39.686;2022-07-23T01:31:18;100376.00;;;21.26;57.79
63343;BME280;49465;57.664;39.686;2022-07-23T01:33:48;100376.81;;;21.26;57.80
63343;BME280;49465;57.664;39.686;2022-07-23T01:36:18;100381.16;;;21.27;57.89
63343;BME280;49465;57.664;39.686;2022-07-23T01:38:44;100385.69;;;21.27;58.16
63343;BME280;49465;57.664;39.686;2022-07-23T01:41:11;100383.00;;;21.27;58.17
63343;BME280;49465;57.664;39.686;2022-07-23T01:43:41;100382.00;;;21.28;58.50
63343;BME280;49465;57.664;39.686;2022-07-23T01:46:10;100381.50;;;21.32;58.14
63343;BME280;49465;57.664;39.686;2022-07-23T01:48:41;100384.34;;;21.31;58.27
63343;BME280;49465;57.664;39.686;2022-07-23T01:51:20;100394.22;;;21.47;57.81
63343;BME280;49465;57.664;39.686;2022-07-23T01:53:49;100392.00;;;21.34;58.26
63343;BME280;49465;57.664;39.686;2022-07-23T01:56:27;100384.00;;;21.34;58.35
63343;BME280;49465;57.664;39.686;2022-07-23T01:59:07;100391.03;;;21.51;58.09
63343;BME280;49465;57.664;39.686;2022-07-23T02:01:45;100384.50;;;21.38;58.21
63343;BME280;49465;57.664;39.686;2022-07-23T02:04:15;100377.16;;;21.40;58.18
63343;BME280;49465;57.664;39.686;2022-07-23T02:06:42;100384.34;;;21.39;58.35
63343;BME280;49465;57.664;39.686;2022-07-23T02:09:11;100384.19;;;21.41;58.27
63343;BME280;49465;57.664;39.686;2022-07-23T02:11:40;100376.84;;;21.43;58.05
63343;BME280;49465;57.664;39.686;2022-07-23T02:14:10;100386.53;;;21.44;58.37
63343;BME280;49465;57.664;39.686;2022-07-23T02:16:39;100382.69;;;21.55;58.23
63343;BME280;49465;57.664;39.686;2022-07-23T02:19:06;100385.19;;;21.48;58.70
63343;BME280;49465;57.664;39.686;2022-07-23T02:21:32;100374.19;;;21.51;59.03
63343;BME280;49465;57.664;39.686;2022-07-23T02:23:59;100373.84;;;21.54;58.81
63343;BME280;49465;57.664;39.686;2022-07-23T02:26:25;100370.19;;;21.55;58.38
63343;BME280;49465;57.664;39.686;2022-07-23T02:28:52;100372.34;;;21.60;58.37
63343;BME280;49465;57.664;39.686;2022-07-23T02:31:19;100373.84;;;21.62;58.51
63343;BME280;49465;57.664;39.686;2022-07-23T02:33:48;100370.84;;;21.65;57.71
63343;BME280;49465;57.664;39.686;2022-07-23T02:36:19;100363.34;;;21.69;58.22
63343;BME280;49465;57.664;39.686;2022-07-23T02:38:54;100357.66;;;21.72;58.32
63343;BME280;49465;57.664;39.686;2022-07-23T02:41:24;100351.16;;;21.75;58.33
63343;BME280;49465;57.664;39.686;2022-07-23T02:43:55;100352.63;;;21.77;58.63
63343;BME280;49465;57.664;39.686;2022-07-23T02:46:21;100346.97;;;21.80;58.82
63343;BME280;49465;57.664;39.686;2022-07-23T02:48:53;100358.41;;;21.97;58.71
63343;BME280;49465;57.664;39.686;2022-07-23T02:51:19;100352.44;;;21.87;59.28
63343;BME280;49465;57.664;39.686;2022-07-23T02:53:46;100352.78;;;21.92;58.62
63343;BME280;49465;57.664;39.686;2022-07-23T02:56:16;100345.44;;;21.94;58.66
63343;BME280;49465;57.664;39.686;2022-07-23T02:58:47;100349.25;;;22.00;59.03
63343;BME280;49465;57.664;39.686;2022-07-23T03:01:14;100349.75;;;22.03;59.45
63343;BME280;49465;57.664;39.686;2022-07-23T03:03:45;100354.00;;;22.21;59.42
63343;BME280;49465;57.664;39.686;2022-07-23T03:06:12;100350.22;;;22.15;59.58
63343;BME280;49465;57.664;39.686;2022-07-23T03:08:45;100356.31;;;22.32;59.42
63343;BME280;49465;57.664;39.686;2022-07-23T03:11:14;100359.81;;;22.41;59.53
63343;BME280;49465;57.664;39.686;2022-07-23T03:13:41;100346.63;;;22.39;59.11
63343;BME280;49465;57.664;39.686;2022-07-23T03:16:18;100358.53;;;22.60;59.80
63343;BME280;49465;57.664;39.686;2022-07-23T03:18:48;100354.06;;;22.52;59.70
63343;BME280;49465;57.664;39.686;2022-07-23T03:21:15;100357.53;;;22.61;59.42
63343;BME280;49465;57.664;39.686;2022-07-23T03:23:46;100350.91;;;22.80;59.49
63343;BME280;49465;57.664;39.686;2022-07-23T03:26:13;100352.44;;;22.74;59.66
63343;BME280;49465;57.664;39.686;2022-07-23T03:28:39;100356.06;;;22.81;59.59
63343;BME280;49465;57.664;39.686;2022-07-23T03:31:11;100358.25;;;23.01;59.46
63343;BME280;49465;57.664;39.686;2022-07-23T03:33:37;100347.94;;;22.98;59.86
63343;BME280;49465;57.664;39.686;2022-07-23T03:36:04;100351.59;;;23.05;59.76
63343;BME280;49465;57.664;39.686;2022-07-23T03:38:35;100356.91;;;23.28;59.28
63343;BME280;49465;57.664;39.686;2022-07-23T03:41:05;100353.59;;;23.26;60.11
63343;BME280;49465;57.664;39.686;2022-07-23T03:43:32;100357.88;;;23.35;59.66
63343;BME280;49465;57.664;39.686;2022-07-23T03:46:03;100359.25;;;23.46;58.94
63343;BME280;49465;57.664;39.686;2022-07-23T03:48:30;100351.63;;;23.58;58.96
63343;BME280;49465;57.664;39.686;2022-07-23T03:51:03;100361.09;;;23.83;58.00
63343;BME280;49465;57.664;39.686;2022-07-23T03:53:37;100363.25;;;23.88;58.03
63343;BME280;49465;57.664;39.686;2022-07-23T03:56:09;100362.22;;;24.04;57.97
63343;BME280;49465;57.664;39.686;2022-07-23T03:58:50;100367.75;;;24.32;57.05
63343;BME280;49465;57.664;39.686;2022-07-23T04:01:42;100369.03;;;24.51;57.24
63343;BME280;49465;57.664;39.686;2022-07-23T04:04:12;100369.50;;;24.55;57.34
63343;BME280;49465;57.664;39.686;2022-07-23T04:06:39;100364.31;;;24.68;57.13
63343;BME280;49465;57.664;39.686;2022-07-23T04:09:05;100364.41;;;24.81;56.99
63343;BME280;49465;57.664;39.686;2022-07-23T04:11:40;100362.91;;;24.94;56.39
63343;BME280;49465;57.664;39.686;2022-07-23T04:14:09;100369.69;;;25.11;57.00
63343;BME280;49465;57.664;39.686;2022-07-23T04:16:35;100364.97;;;25.13;56.82
63343;BME280;49465;57.664;39.686;2022-07-23T04:19:02;100362.63;;;25.25;56.34
63343;BME280;49465;57.664;39.686;2022-07-23T04:21:30;100365.97;;;25.34;56.62
63343;BME280;49465;57.664;39.686;2022-07-23T04:24:01;100370.84;;;25.45;56.09
63343;BME280;49465;57.664;39.686;2022-07-23T04:26:30;100363.44;;;25.54;55.80
63343;BME280;49465;57.664;39.686;2022-07-23T04:29:05;100363.97;;;25.64;55.70
63343;BME280;49465;57.664;39.686;2022-07-23T04:31:34;100369.84;;;25.81;55.45
63343;BME280;49465;57.664;39.686;2022-07-23T04:34:01;100370.09;;;25.86;55.76
63343;BME280;49465;57.664;39.686;2022-07-23T04:36:27;100379.28;;;25.98;55.37
63343;BME280;49465;57.664;39.686;2022-07-23T04:38:55;100370.47;;;26.11;55.23
63343;BME280;49465;57.664;39.686;2022-07-23T04:41:21;100368.69;;;26.25;54.57
63343;BME280;49465;57.664;39.686;2022-07-23T04:43:50;100379.50;;;26.45;54.48
63343;BME280;49465;57.664;39.686;2022-07-23T04:46:20;100370.44;;;26.53;54.12
63343;BME280;49465;57.664;39.686;2022-07-23T04:48:49;100370.09;;;26.62;54.30
63343;BME280;49465;57.664;39.686;2022-07-23T04:51:18;100370.34;;;26.74;53.40
63343;BME280;49465;57.664;39.686;2022-07-23T04:53:48;100374.50;;;26.90;53.08
63343;BME280;49465;57.664;39.686;2022-07-23T04:56:18;100367.91;;;27.06;52.60
63343;BME280;49465;57.664;39.686;2022-07-23T04:58:44;100376.22;;;27.25;52.22
63343;BME280;49465;57.664;39.686;2022-07-23T05:01:15;100364.25;;;27.40;52.05
63343;BME280;49465;57.664;39.686;2022-07-23T05:03:41;100373.94;;;27.61;51.71
63343;BME280;49465;57.664;39.686;2022-07-23T05:06:08;100368.13;;;27.78;51.08
63343;BME280;49465;57.664;39.686;2022-07-23T05:08:37;100367.50;;;27.96;50.91
63343;BME280;49465;57.664;39.686;2022-07-23T05:11:07;100368.50;;;28.15;51.28
63343;BME280;49465;57.664;39.686;2022-07-23T05:13:34;100376.09;;;28.31;50.54
63343;BME280;49465;57.664;39.686;2022-07-23T05:16:15;100369.56;;;28.59;50.06
63343;BME280;49465;57.664;39.686;2022-07-23T05:18:57;100359.94;;;28.76;49.19
63343;BME280;49465;57.664;39.686;2022-07-23T05:21:29;100357.56;;;28.87;47.99
63343;BME280;49465;57.664;39.686;2022-07-23T05:24:01;100357.50;;;29.00;48.32
63343;BME280;49465;57.664;39.686;2022-07-23T05:26:27;100361.34;;;29.17;49.01
63343;BME280;49465;57.664;39.686;2022-07-23T05:29:12;100357.28;;;29.52;48.21
63343;BME280;49465;57.664;39.686;2022-07-23T05:31:42;100359.34;;;29.56;48.07
63343;BME280;49465;57.664;39.686;2022-07-23T05:34:18;100355.56;;;29.83;47.70
63343;BME280;49465;57.664;39.686;2022-07-23T05:36:50;100358.06;;;30.03;47.20
63343;BME280;49465;57.664;39.686;2022-07-23T05:39:21;100355.78;;;30.18;46.89
63343;BME280;49465;57.664;39.686;2022-07-23T05:41:55;100356.25;;;30.33;46.44
63343;BME280;49465;57.664;39.686;2022-07-23T05:44:33;100362.44;;;30.41;45.74
63343;BME280;49465;57.664;39.686;2022-07-23T05:47:00;100357.44;;;30.56;45.48
63343;BME280;49465;57.664;39.686;2022-07-23T05:49:27;100355.13;;;30.71;44.71
63343;BME280;49465;57.664;39.686;2022-07-23T05:51:57;100350.97;;;30.87;43.86
63343;BME280;49465;57.664;39.686;2022-07-23T05:54:33;100357.63;;;31.03;43.68
63343;BME280;49465;57.664;39.686;2022-07-23T05:57:03;100355.50;;;31.17;43.47
63343;BME280;49465;57.664;39.686;2022-07-23T05:59:32;100350.56;;;31.26;43.22
63343;BME280;49465;57.664;39.686;2022-07-23T06:02:00;100348.09;;;31.36;43.14
63343;BME280;49465;57.664;39.686;2022-07-23T06:04:30;100355.22;;;31.49;43.01
63343;BME280;49465;57.664;39.686;2022-07-23T06:06:57;100354.13;;;31.62;43.07
63343;BME280;49465;57.664;39.686;2022-07-23T06:09:28;100354.00;;;31.80;42.63
63343;BME280;49465;57.664;39.686;2022-07-23T06:12:02;100347.41;;;31.88;42.50
63343;BME280;49465;57.664;39.686;2022-07-23T06:14:41;100344.66;;;32.00;43.15
63343;BME280;49465;57.664;39.686;2022-07-23T06:17:08;100341.03;;;32.06;41.80
63343;BME280;49465;57.664;39.686;2022-07-23T06:19:34;100338.63;;;32.21;42.08
63343;BME280;49465;57.664;39.686;2022-07-23T06:22:01;100328.66;;;32.39;41.95
63343;BME280;49465;57.664;39.686;2022-07-23T06:24:30;100335.19;;;32.55;40.95
63343;BME280;49465;57.664;39.686;2022-07-23T06:26:56;100327.09;;;32.71;41.00
63343;BME280;49465;57.664;39.686;2022-07-23T06:29:30;100328.22;;;32.87;39.86
63343;BME280;49465;57.664;39.686;2022-07-23T06:31:56;100323.84;;;33.03;39.25
63343;BME280;49465;57.664;39.686;2022-07-23T06:34:26;100324.53;;;33.10;39.09
63343;BME280;49465;57.664;39.686;2022-07-23T06:36:56;100323.28;;;33.18;38.49
63343;BME280;49465;57.664;39.686;2022-07-23T06:39:23;100327.00;;;33.29;39.93
63343;BME280;49465;57.664;39.686;2022-07-23T06:41:49;100325.81;;;33.42;39.54
63343;BME280;49465;57.664;39.686;2022-07-23T06:44:19;100317.66;;;33.59;39.80
63343;BME280;49465;57.664;39.686;2022-07-23T06:46:45;100306.44;;;33.72;39.69
63343;BME280;49465;57.664;39.686;2022-07-23T06:49:11;100312.31;;;33.86;38.57
63343;BME280;49465;57.664;39.686;2022-07-23T06:51:38;100320.34;;;33.98;37.57
63343;BME280;49465;57.664;39.686;2022-07-23T06:54:04;100323.41;;;34.01;37.71
63343;BME280;49465;57.664;39.686;2022-07-23T06:56:31;100319.91;;;34.06;37.79
63343;BME280;49465;57.664;39.686;2022-07-23T06:59:00;100317.81;;;34.13;37.05
63343;BME280;49465;57.664;39.686;2022-07-23T07:01:30;100315.88;;;34.31;36.84
63343;BME280;49465;57.664;39.686;2022-07-23T07:03:56;100309.34;;;34.32;36.77
63343;BME280;49465;57.664;39.686;2022-07-23T07:06:23;100316.28;;;34.44;36.38
63343;BME280;49465;57.664;39.686;2022-07-23T07:08:49;100313.91;;;34.53;35.83
63343;BME280;49465;57.664;39.686;2022-07-23T07:11:15;100309.09;;;34.60;35.75
63343;BME280;49465;57.664;39.686;2022-07-23T07:13:42;100308.66;;;34.69;36.12
63343;BME280;49465;57.664;39.686;2022-07-23T07:16:08;100304.84;;;34.70;34.42
63343;BME280;49465;57.664;39.686;2022-07-23T07:18:35;100301.03;;;34.71;35.02
63343;BME280;49465;57.664;39.686;2022-07-23T07:21:01;100305.13;;;34.73;35.23
63343;BME280;49465;57.664;39.686;2022-07-23T07:23:34;100308.72;;;34.79;34.39
63343;BME280;49465;57.664;39.686;2022-07-23T07:26:01;100301.19;;;34.86;34.74
63343;BME280;49465;57.664;39.686;2022-07-23T07:28:30;100300.38;;;34.91;33.63
63343;BME280;49465;57.664;39.686;2022-07-23T07:30:56;100294.44;;;34.99;33.68
63343;BME280;49465;57.664;39.686;2022-07-23T07:33:31;100296.56;;;35.19;34.07
63343;BME280;49465;57.664;39.686;2022-07-23T07:35:58;100297.03;;;35.16;33.56
63343;BME280;49465;57.664;39.686;2022-07-23T07:38:27;100297.41;;;35.24;34.07
63343;BME280;49465;57.664;39.686;2022-07-23T07:40:53;100295.47;;;35.20;32.91
63343;BME280;49465;57.664;39.686;2022-07-23T07:43:20;100298.22;;;35.25;33.42
63343;BME280;49465;57.664;39.686;2022-07-23T07:45:46;100305.09;;;35.33;33.21
63343;BME280;49465;57.664;39.686;2022-07-23T07:48:13;100316.56;;;35.40;33.59
63343;BME280;49465;57.664;39.686;2022-07-23T07:50:39;100310.34;;;35.50;32.77
63343;BME280;49465;57.664;39.686;2022-07-23T07:53:05;100310.44;;;35.60;33.57
63343;BME280;49465;57.664;39.686;2022-07-23T07:55:32;100307.72;;;35.65;32.54
63343;BME280;49465;57.664;39.686;2022-07-23T07:57:58;100308.06;;;35.79;32.69
63343;BME280;49465;57.664;39.686;2022-07-23T08:00:25;100309.75;;;35.90;32.81
63343;BME280;49465;57.664;39.686;2022-07-23T08:02:53;100311.19;;;36.03;31.71
63343;BME280;49465;57.664;39.686;2022-07-23T08:05:25;100324.06;;;36.18;32.03
63343;BME280;49465;57.664;39.686;2022-07-23T08:07:52;100315.84;;;36.13;30.73
63343;BME280;49465;57.664;39.686;2022-07-23T08:10:19;100319.41;;;36.18;31.70
63343;BME280;49465;57.664;39.686;2022-07-23T08:12:48;100309.09;;;36.26;31.76
63343;BME280;49465;57.664;39.686;2022-07-23T08:15:16;100315.13;;;36.33;30.98
63343;BME280;49465;57.664;39.686;2022-07-23T08:17:45;100313.75;;;36.40;31.75
63343;BME280;49465;57.664;39.686;2022-07-23T08:20:13;100318.41;;;36.50;31.23
63343;BME280;49465;57.664;39.686;2022-07-23T08:25:13;100305.06;;;36.69;31.33
63343;BME280;49465;57.664;39.686;2022-07-23T08:27:45;100315.75;;;36.91;31.30
63343;BME280;49465;57.664;39.686;2022-07-23T08:30:11;100310.53;;;36.95;31.58
63343;BME280;49465;57.664;39.686;2022-07-23T08:32:51;100322.56;;;37.19;30.41
63343;BME280;49465;57.664;39.686;2022-07-23T08:35:26;100323.63;;;37.08;30.85
63343;BME280;49465;57.664;39.686;2022-07-23T08:37:53;100314.91;;;36.91;31.12
63343;BME280;49465;57.664;39.686;2022-07-23T08:40:20;100319.28;;;36.92;31.61
63343;BME280;49465;57.664;39.686;2022-07-23T08:42:48;100314.09;;;37.00;30.65
63343;BME280;49465;57.664;39.686;2022-07-23T08:45:18;100317.63;;;37.11;30.37
63343;BME280;49465;57.664;39.686;2022-07-23T08:47:50;100316.84;;;37.16;30.78
63343;BME280;49465;57.664;39.686;2022-07-23T08:50:25;100304.78;;;37.32;30.17
63343;BME280;49465;57.664;39.686;2022-07-23T08:52:53;100306.41;;;37.38;29.81
63343;BME280;49465;57.664;39.686;2022-07-23T08:55:23;100301.47;;;37.46;29.69
63343;BME280;49465;57.664;39.686;2022-07-23T08:57:51;100311.81;;;37.54;30.31
63343;BME280;49465;57.664;39.686;2022-07-23T09:00:19;100307.19;;;37.59;30.23
63343;BME280;49465;57.664;39.686;2022-07-23T09:02:49;100306.06;;;37.76;29.91
63343;BME280;49465;57.664;39.686;2022-07-23T09:05:19;100311.78;;;37.74;30.04
63343;BME280;49465;57.664;39.686;2022-07-23T09:08:12;100309.22;;;37.98;30.14
63343;BME280;49465;57.664;39.686;2022-07-23T09:10:59;100317.81;;;37.71;29.88
63343;BME280;49465;57.664;39.686;2022-07-23T09:18:50;100307.25;;;37.29;31.02
63343;BME280;49465;57.664;39.686;2022-07-23T09:21:23;100309.38;;;37.47;30.41
63343;BME280;49465;57.664;39.686;2022-07-23T09:24:01;100305.00;;;37.56;30.29
63343;BME280;49465;57.664;39.686;2022-07-23T09:26:32;100301.47;;;37.46;29.02
63343;BME280;49465;57.664;39.686;2022-07-23T09:31:45;100295.69;;;37.63;29.68
63343;BME280;49465;57.664;39.686;2022-07-23T09:34:31;100294.25;;;37.86;30.25
63343;BME280;49465;57.664;39.686;2022-07-23T09:37:20;100306.34;;;37.69;29.45
63343;BME280;49465;57.664;39.686;2022-07-23T09:39:47;100296.19;;;37.80;29.35
63343;BME280;49465;57.664;39.686;2022-07-23T09:42:17;100302.47;;;37.81;29.46
63343;BME280;49465;57.664;39.686;2022-07-23T09:44:46;100303.38;;;37.66;28.64
63343;BME280;49465;57.664;39.686;2022-07-23T09:47:13;100308.03;;;37.39;29.46
63343;BME280;49465;57.664;39.686;2022-07-23T09:49:39;100305.34;;;37.14;29.66
63343;BME280;49465;57.664;39.686;2022-07-23T09:52:06;100304.28;;;36.89;30.16
63343;BME280;49465;57.664;39.686;2022-07-23T09:54:36;100303.72;;;36.77;30.25
63343;BME280;49465;57.664;39.686;2022-07-23T09:57:10;100305.91;;;36.70;31.10
63343;BME280;49465;57.664;39.686;2022-07-23T09:59:41;100304.72;;;36.40;30.96
63343;BME280;49465;57.664;39.686;2022-07-23T10:02:10;100294.91;;;36.29;31.50
63343;BME280;49465;57.664;39.686;2022-07-23T10:04:39;100298.72;;;36.28;31.43
63343;BME280;49465;57.664;39.686;2022-07-23T10:07:08;100294.38;;;36.42;31.61
63343;BME280;49465;57.664;39.686;2022-07-23T10:09:39;100291.38;;;36.49;31.04
63343;BME280;49465;57.664;39.686;2022-07-23T10:12:11;100293.28;;;36.63;30.82
63343;BME280;49465;57.664;39.686;2022-07-23T10:14:42;100287.59;;;36.65;30.32
63343;BME280;49465;57.664;39.686;2022-07-23T10:17:09;100290.34;;;36.70;28.91
63343;BME280;49465;57.664;39.686;2022-07-23T10:19:36;100283.50;;;36.78;29.90
63343;BME280;49465;57.664;39.686;2022-07-23T10:22:06;100293.91;;;36.91;29.72
63343;BME280;49465;57.664;39.686;2022-07-23T10:27:42;100281.56;;;37.09;29.77
63343;BME280;49465;57.664;39.686;2022-07-23T10:33:32;100274.16;;;37.35;29.72
63343;BME280;49465;57.664;39.686;2022-07-23T10:38:58;100279.94;;;37.18;28.96
63343;BME280;49465;57.664;39.686;2022-07-23T10:41:38;100280.19;;;37.27;29.14
63343;BME280;49465;57.664;39.686;2022-07-23T10:44:20;100273.06;;;37.31;27.33
63343;BME280;49465;57.664;39.686;2022-07-23T10:49:34;100263.28;;;37.15;28.67
63343;BME280;49465;57.664;39.686;2022-07-23T10:54:45;100264.63;;;37.23;29.33
63343;BME280;49465;57.664;39.686;2022-07-23T10:57:16;100264.34;;;37.34;29.08
63343;BME280;49465;57.664;39.686;2022-07-23T11:02:44;100258.03;;;37.44;28.78
63343;BME280;49465;57.664;39.686;2022-07-23T11:05:16;100254.69;;;37.52;29.80
63343;BME280;49465;57.664;39.686;2022-07-23T11:10:42;100253.81;;;37.72;29.95
63343;BME280;49465;57.664;39.686;2022-07-23T11:13:28;100247.69;;;37.91;29.74
63343;BME280;49465;57.664;39.686;2022-07-23T11:16:07;100250.75;;;37.89;29.80
63343;BME280;49465;57.664;39.686;2022-07-23T11:18:52;100251.81;;;37.93;29.08
63343;BME280;49465;57.664;39.686;2022-07-23T11:24:15;100248.00;;;37.89;29.63
63343;BME280;49465;57.664;39.686;2022-07-23T11:26:56;100238.41;;;37.87;29.89
63343;BME280;49465;57.664;39.686;2022-07-23T11:31:58;100234.72;;;37.57;27.08
63343;BME280;49465;57.664;39.686;2022-07-23T11:35:01;100235.19;;;37.79;29.02
63343;BME280;49465;57.664;39.686;2022-07-23T11:37:38;100225.84;;;37.86;29.45
63343;BME280;49465;57.664;39.686;2022-07-23T11:40:18;100226.06;;;37.94;28.54
63343;BME280;49465;57.664;39.686;2022-07-23T11:42:58;100226.06;;;37.94;28.75
63343;BME280;49465;57.664;39.686;2022-07-23T11:45:39;100231.19;;;38.11;29.04
63343;BME280;49465;57.664;39.686;2022-07-23T11:48:15;100227.94;;;38.09;28.76
63343;BME280;49465;57.664;39.686;2022-07-23T11:50:49;100229.28;;;38.07;28.46
63343;BME280;49465;57.664;39.686;2022-07-23T11:53:29;100223.53;;;38.08;28.76
63343;BME280;49465;57.664;39.686;2022-07-23T11:56:06;100224.13;;;38.00;29.84
63343;BME280;49465;57.664;39.686;2022-07-23T11:58:36;100215.50;;;37.77;30.04
63343;BME280;49465;57.664;39.686;2022-07-23T12:01:03;100215.22;;;37.79;29.59
63343;BME280;49465;57.664;39.686;2022-07-23T12:03:30;100214.38;;;37.84;30.13
63343;BME280;49465;57.664;39.686;2022-07-23T12:05:58;100213.78;;;37.92;30.23
63343;BME280;49465;57.664;39.686;2022-07-23T12:08:24;100206.63;;;37.96;29.19
63343;BME280;49465;57.664;39.686;2022-07-23T12:10:51;100209.66;;;37.94;28.83
63343;BME280;49465;57.664;39.686;2022-07-23T12:13:19;100218.97;;;37.93;29.61
63343;BME280;49465;57.664;39.686;2022-07-23T12:15:48;100209.44;;;37.86;29.11
63343;BME280;49465;57.664;39.686;2022-07-23T12:18:17;100215.19;;;37.89;29.59
63343;BME280;49465;57.664;39.686;2022-07-23T12:20:49;100219.19;;;37.97;29.97
63343;BME280;49465;57.664;39.686;2022-07-23T12:23:18;100214.25;;;38.04;29.38
63343;BME280;49465;57.664;39.686;2022-07-23T12:25:49;100217.53;;;38.06;29.47
63343;BME280;49465;57.664;39.686;2022-07-23T12:28:32;100216.03;;;38.24;29.66
63343;BME280;49465;57.664;39.686;2022-07-23T12:31:02;100214.34;;;38.28;29.72
63343;BME280;49465;57.664;39.686;2022-07-23T12:33:39;100211.03;;;38.36;29.50
63343;BME280;49465;57.664;39.686;2022-07-23T12:36:08;100205.78;;;38.40;28.64
63343;BME280;49465;57.664;39.686;2022-07-23T12:38:57;100201.56;;;38.58;28.53
63343;BME280;49465;57.664;39.686;2022-07-23T12:41:51;100201.84;;;38.86;28.85
63343;BME280;49465;57.664;39.686;2022-07-23T12:44:18;100193.53;;;38.67;28.37
63343;BME280;49465;57.664;39.686;2022-07-23T12:46:52;100190.38;;;38.84;28.41
63343;BME280;49465;57.664;39.686;2022-07-23T12:49:28;100190.81;;;38.91;28.41
63343;BME280;49465;57.664;39.686;2022-07-23T12:51:55;100184.44;;;38.71;28.52
63343;BME280;49465;57.664;39.686;2022-07-23T12:54:28;100188.44;;;38.84;28.11
63343;BME280;49465;57.664;39.686;2022-07-23T12:56:54;100177.59;;;38.74;28.01
63343;BME280;49465;57.664;39.686;2022-07-23T12:59:21;100176.72;;;38.79;27.55
63343;BME280;49465;57.664;39.686;2022-07-23T13:01:57;100176.22;;;39.01;28.31
63343;BME280;49465;57.664;39.686;2022-07-23T13:04:25;100182.38;;;38.87;29.09
63343;BME280;49465;57.664;39.686;2022-07-23T13:06:58;100171.63;;;38.91;28.75
63343;BME280;49465;57.664;39.686;2022-07-23T13:09:31;100170.97;;;39.04;29.17
63343;BME280;49465;57.664;39.686;2022-07-23T13:11:58;100167.19;;;39.00;28.44
63343;BME280;49465;57.664;39.686;2022-07-23T13:14:26;100167.13;;;39.05;27.59
63343;BME280;49465;57.664;39.686;2022-07-23T13:16:54;100163.00;;;39.08;28.16
63343;BME280;49465;57.664;39.686;2022-07-23T13:19:21;100162.41;;;39.11;28.14
63343;BME280;49465;57.664;39.686;2022-07-23T13:21:48;100158.25;;;39.13;28.41
63343;BME280;49465;57.664;39.686;2022-07-23T13:24:15;100157.66;;;39.16;28.39
63343;BME280;49465;57.664;39.686;2022-07-23T13:26:42;100156.56;;;39.18;28.70
63343;BME280;49465;57.664;39.686;2022-07-23T13:29:09;100154.63;;;39.18;27.65
63343;BME280;49465;57.664;39.686;2022-07-23T13:31:43;100158.88;;;39.29;27.65
63343;BME280;49465;57.664;39.686;2022-07-23T13:34:09;100150.81;;;39.19;27.30